Vernicos Master — SVA2352 — position and weather

sailwx.info

Track history (hours):
 
Tides and Currents Weather Stations Pressure Air Temp Water Temp Dewpoint Dewpoint Depression Visibility Wind Speed Wind Dir Waves Ship Positions

Vernicos Master

Last reported at 2016-Aug-25 10:33 UTC. Time now 2016-Aug-25 11:27 UTC.
Position N 40°38' E 022°56'.

Length 28 m; draft 3.8 m.

Type: Tug. MMSI: 240917000.

Date/timePositionNaut miles runAvg speedWind from/ knotsBaromVisibWave heightAir tempDewpointWater temp
2016-Aug-25 10:33N 40°38' E 022°56'2 1.7
2016-Aug-25 09:33N 40°38' E 022°53'1 0.6
2016-Aug-25 08:34N 40°38' E 022°53'0 0.0
2016-Aug-25 07:34N 40°38' E 022°53'0 0.0
2016-Aug-25 06:33N 40°38' E 022°53'1 0.5
2016-Aug-25 04:33N 40°38' E 022°54'1 1.1
2016-Aug-25 03:33N 40°38' E 022°56'1 0.1
2016-Aug-24 19:33N 40°38' E 022°54'0 0.2
2016-Aug-24 18:33N 40°38' E 022°54'1 1.3
2016-Aug-24 17:33N 40°37' E 022°54'0 0.2
2016-Aug-24 16:34N 40°37' E 022°54'0 0.3
2016-Aug-24 15:33N 40°37' E 022°54'0 0.0
2016-Aug-24 14:33N 40°37' E 022°54'0 0.0
2016-Aug-24 13:33N 40°37' E 022°54'0 0.0
2016-Aug-24 12:33N 40°37' E 022°54'0 0.0
2016-Aug-24 11:33N 40°37' E 022°54'0 0.0
2016-Aug-24 10:33N 40°37' E 022°54'0 0.0
2016-Aug-24 09:33N 40°37' E 022°54'0 0.0
2016-Aug-24 08:33N 40°37' E 022°54'0 0.0
2016-Aug-24 07:33N 40°37' E 022°54'0 0.0
2016-Aug-24 06:31N 40°37' E 022°54'0 0.0
2016-Aug-24 04:33N 40°37' E 022°54'0 0.0
2016-Aug-24 03:34N 40°37' E 022°54'0 0.0
2016-Aug-24 02:34N 40°37' E 022°54'0 0.0
2016-Aug-24 01:34N 40°37' E 022°54'0 0.0
2016-Aug-24 00:34N 40°37' E 022°54'0 0.0
2016-Aug-23 23:34N 40°37' E 022°54'0 0.0
2016-Aug-23 22:34N 40°37' E 022°54'0 0.0
2016-Aug-23 21:34N 40°37' E 022°54'0 0.0
2016-Aug-23 20:33N 40°37' E 022°54'0 0.0
2016-Aug-23 19:33N 40°37' E 022°54'0 0.0
2016-Aug-23 18:33N 40°37' E 022°54'0 0.0
2016-Aug-23 17:33N 40°37' E 022°54'0 0.0
2016-Aug-23 16:33N 40°37' E 022°54'0 0.0
2016-Aug-23 15:33N 40°37' E 022°54'0 0.0
2016-Aug-23 14:33N 40°37' E 022°54'0 0.0
2016-Aug-23 13:34N 40°37' E 022°54'0 0.0
2016-Aug-23 12:34N 40°37' E 022°54'0 0.0
2016-Aug-23 11:34N 40°37' E 022°54'0 0.0
2016-Aug-23 10:34N 40°37' E 022°54'1 0.5
2016-Aug-23 09:34N 40°37' E 022°54'0 0.2
2016-Aug-23 08:34N 40°37' E 022°54'0 0.2
2016-Aug-23 07:33N 40°37' E 022°54'2 2.0
2016-Aug-23 06:33N 40°38' E 022°56'0 0.0
2016-Aug-23 05:33N 40°38' E 022°56'1 1.5
2016-Aug-23 04:33N 40°38' E 022°54'1 1.5
2016-Aug-23 03:33N 40°38' E 022°56'0 0.0
2016-Aug-23 02:34N 40°38' E 022°56'0 0.0
2016-Aug-23 01:33N 40°38' E 022°56'0 0.0
2016-Aug-23 00:33N 40°38' E 022°56'0 0.0
2016-Aug-22 23:34N 40°38' E 022°56'0 0.0
2016-Aug-22 22:33N 40°38' E 022°56'0 0.0
2016-Aug-22 21:34N 40°38' E 022°56'0 0.0
2016-Aug-22 20:33N 40°38' E 022°56'0 0.0
2016-Aug-22 19:34N 40°38' E 022°56'0 0.0
2016-Aug-22 18:33N 40°38' E 022°56'0 0.0
2016-Aug-22 15:33N 40°38' E 022°56'0 0.0
2016-Aug-22 14:33N 40°38' E 022°56'1 0.3
2016-Aug-22 10:33N 40°38' E 022°54'0 0.4
2016-Aug-22 09:33N 40°38' E 022°53'0 0.0
2016-Aug-22 08:33N 40°38' E 022°53'0 0.0
2016-Aug-22 07:33N 40°38' E 022°53'0 0.0
2016-Aug-22 06:33N 40°38' E 022°53'0 0.0
2016-Aug-22 05:33N 40°38' E 022°53'0 0.3
2016-Aug-22 04:33N 40°38' E 022°54'0 0.5
2016-Aug-22 03:33N 40°38' E 022°54'1 1.0
2016-Aug-22 02:33N 40°38' E 022°56'0 0.0
2016-Aug-22 01:33N 40°38' E 022°56'0 0.0
2016-Aug-22 00:33N 40°38' E 022°56'0 0.0
2016-Aug-21 23:33N 40°38' E 022°56'0 0.0
2016-Aug-21 22:33N 40°38' E 022°56'0 0.0
2016-Aug-21 21:33N 40°38' E 022°56'0 0.0
2016-Aug-21 20:34N 40°38' E 022°56'0 0.0
2016-Aug-21 19:33N 40°38' E 022°56'0 0.0
2016-Aug-21 18:33N 40°38' E 022°56'1 1.0
2016-Aug-21 17:33N 40°38' E 022°54'0 0.2
2016-Aug-21 16:33N 40°38' E 022°54'1 1.1
2016-Aug-21 15:33N 40°38' E 022°56'1 1.2
2016-Aug-21 14:33N 40°38' E 022°54'1 1.4
2016-Aug-21 13:34N 40°37' E 022°54'0 0.1
2016-Aug-21 12:34N 40°37' E 022°54'0 0.2
2016-Aug-21 11:33N 40°37' E 022°54'0 0.4
2016-Aug-21 10:33N 40°37' E 022°54'0 0.0
2016-Aug-21 09:34N 40°37' E 022°54'0 0.0
2016-Aug-21 08:34N 40°37' E 022°54'0 0.0
2016-Aug-21 07:33N 40°37' E 022°54'0 0.0
2016-Aug-21 06:33N 40°37' E 022°54'0 0.0
2016-Aug-21 05:33N 40°37' E 022°54'0 0.0
2016-Aug-21 04:33N 40°37' E 022°54'0 0.0
2016-Aug-21 03:33N 40°37' E 022°54'0 0.0
2016-Aug-21 02:33N 40°37' E 022°54'0 0.0
2016-Aug-21 01:33N 40°37' E 022°54'0 0.0
2016-Aug-21 00:33N 40°37' E 022°54'0 0.0
2016-Aug-20 23:33N 40°37' E 022°54'0 0.0
2016-Aug-20 22:33N 40°37' E 022°54'0 0.0
2016-Aug-20 21:33N 40°37' E 022°54'0 0.0
2016-Aug-20 20:33N 40°37' E 022°54'0 0.0
2016-Aug-20 19:33N 40°37' E 022°54'0 0.0
2016-Aug-20 18:33N 40°37' E 022°54'0 0.0
2016-Aug-20 17:34N 40°37' E 022°54'0 0.0
2016-Aug-20 16:33N 40°37' E 022°54'0 0.0
2016-Aug-20 15:33N 40°37' E 022°54'0 0.0
2016-Aug-20 14:33N 40°37' E 022°54'0 0.0
2016-Aug-20 13:33N 40°37' E 022°54'0 0.0
2016-Aug-20 12:33N 40°37' E 022°54'0 0.0
2016-Aug-20 11:33N 40°37' E 022°54'0 0.0
2016-Aug-20 10:33N 40°37' E 022°54'0 0.0
2016-Aug-20 09:33N 40°37' E 022°54'0 0.3
2016-Aug-20 08:34N 40°37' E 022°54'0 0.2
2016-Aug-20 07:34N 40°37' E 022°54'2 2.0
2016-Aug-20 06:34N 40°38' E 022°56'1 1.1
2016-Aug-20 05:34N 40°38' E 022°54'1 0.7
2016-Aug-20 04:34N 40°38' E 022°53'2 1.7
2016-Aug-20 03:33N 40°38' E 022°56'0 0.0
2016-Aug-20 02:33N 40°38' E 022°56'0 0.0
2016-Aug-20 01:33N 40°38' E 022°56'0 0.0
2016-Aug-20 00:33N 40°38' E 022°56'0 0.0
2016-Aug-19 23:33N 40°38' E 022°56'0 0.0
2016-Aug-19 22:33N 40°38' E 022°56'0 0.0
2016-Aug-19 21:33N 40°38' E 022°56'0 0.0
2016-Aug-19 20:34N 40°38' E 022°56'0 0.0
2016-Aug-19 19:33N 40°38' E 022°56'0 0.0
2016-Aug-19 18:33N 40°38' E 022°56'0 0.0
2016-Aug-19 17:33N 40°38' E 022°56'0 0.0
2016-Aug-19 16:33N 40°38' E 022°56'0 0.0
2016-Aug-19 15:33N 40°38' E 022°56'0 0.0
2016-Aug-19 11:32N 40°38' E 022°56'0 0.0
2016-Aug-18 17:29N 40°38' E 022°56'0 0.0
2016-Aug-18 16:33N 40°38' E 022°56'0 0.0
2016-Aug-18 15:33N 40°38' E 022°56'0 0.0
2016-Aug-18 14:33N 40°38' E 022°56'0 0.0
2016-Aug-18 13:33N 40°38' E 022°56'0 0.0
2016-Aug-18 12:33N 40°38' E 022°56'1 1.1
2016-Aug-18 11:33N 40°38' E 022°54'0 0.5
2016-Aug-18 10:33N 40°38' E 022°54'1 0.7
2016-Aug-18 09:33N 40°38' E 022°53'0 0.0
2016-Aug-18 08:33N 40°38' E 022°53'2 2.0
2016-Aug-18 07:34N 40°38' E 022°56'2 0.1
2016-Aug-17 09:33N 40°38' E 022°54'0 0.0
2016-Aug-17 08:33N 40°38' E 022°54'0 0.0
2016-Aug-17 07:33N 40°38' E 022°54'0 0.0
2016-Aug-17 06:33N 40°38' E 022°54'0 0.4
2016-Aug-17 05:32N 40°38' E 022°53'1 1.0
2016-Aug-17 04:33N 40°38' E 022°54'0 0.1
2016-Aug-17 03:33N 40°38' E 022°54'1 0.1
2016-Aug-16 08:31N 40°38' E 022°56'0 0.0
2016-Aug-16 07:33N 40°38' E 022°56'2 0.7
2016-Aug-16 04:33N 40°38' E 022°53'0 0.0
2016-Aug-16 03:33N 40°38' E 022°53'0 0.0
2016-Aug-16 02:34N 40°38' E 022°53'0 0.0
2016-Aug-16 01:33N 40°38' E 022°53'0 0.0
2016-Aug-16 00:33N 40°38' E 022°53'0 0.0
2016-Aug-15 23:33N 40°38' E 022°53'0 0.0
2016-Aug-15 22:33N 40°38' E 022°53'0 0.0
2016-Aug-15 21:33N 40°38' E 022°53'0 0.0
2016-Aug-15 20:33N 40°38' E 022°53'0 0.0
2016-Aug-15 19:33N 40°38' E 022°53'0 0.0
2016-Aug-15 18:33N 40°38' E 022°53'0 0.0
2016-Aug-15 17:33N 40°38' E 022°53'0 0.0
2016-Aug-15 16:33N 40°38' E 022°53'0 0.0
2016-Aug-15 15:33N 40°38' E 022°53'0 0.0
2016-Aug-15 14:33N 40°38' E 022°53'0 0.0
2016-Aug-15 13:33N 40°38' E 022°53'0 0.0
2016-Aug-15 12:34N 40°38' E 022°53'0 0.0
2016-Aug-15 11:33N 40°38' E 022°53'  
Track history (hours):
 
Tides and Currents Weather Stations Pressure Air Temp Water Temp Dewpoint Dewpoint Depression Visibility Wind Speed Wind Dir Waves Ship Positions

Vernicos Master

Last reported at 2016-Aug-25 10:33 UTC. Time now 2016-Aug-25 11:27 UTC.
Position N 40°38' E 022°56'.

Length 28 m; draft 3.8 m.

Type: Tug. MMSI: 240917000.

Date/timePositionNaut miles runAvg speedWind from/ knotsBaromVisibWave heightAir tempDewpointWater temp
2016-Aug-25 10:33N 40°38' E 022°56'2 1.7
2016-Aug-25 09:33N 40°38' E 022°53'1 0.6
2016-Aug-25 08:34N 40°38' E 022°53'0 0.0
2016-Aug-25 07:34N 40°38' E 022°53'0 0.0
2016-Aug-25 06:33N 40°38' E 022°53'1 0.5
2016-Aug-25 04:33N 40°38' E 022°54'1 1.1
2016-Aug-25 03:33N 40°38' E 022°56'1 0.1
2016-Aug-24 19:33N 40°38' E 022°54'0 0.2
2016-Aug-24 18:33N 40°38' E 022°54'1 1.3
2016-Aug-24 17:33N 40°37' E 022°54'0 0.2
2016-Aug-24 16:34N 40°37' E 022°54'0 0.3
2016-Aug-24 15:33N 40°37' E 022°54'0 0.0
2016-Aug-24 14:33N 40°37' E 022°54'0 0.0
2016-Aug-24 13:33N 40°37' E 022°54'0 0.0
2016-Aug-24 12:33N 40°37' E 022°54'0 0.0
2016-Aug-24 11:33N 40°37' E 022°54'0 0.0
2016-Aug-24 10:33N 40°37' E 022°54'0 0.0
2016-Aug-24 09:33N 40°37' E 022°54'0 0.0
2016-Aug-24 08:33N 40°37' E 022°54'0 0.0
2016-Aug-24 07:33N 40°37' E 022°54'0 0.0
2016-Aug-24 06:31N 40°37' E 022°54'0 0.0
2016-Aug-24 04:33N 40°37' E 022°54'0 0.0
2016-Aug-24 03:34N 40°37' E 022°54'0 0.0
2016-Aug-24 02:34N 40°37' E 022°54'0 0.0
2016-Aug-24 01:34N 40°37' E 022°54'0 0.0
2016-Aug-24 00:34N 40°37' E 022°54'0 0.0
2016-Aug-23 23:34N 40°37' E 022°54'0 0.0
2016-Aug-23 22:34N 40°37' E 022°54'0 0.0
2016-Aug-23 21:34N 40°37' E 022°54'0 0.0
2016-Aug-23 20:33N 40°37' E 022°54'0 0.0
2016-Aug-23 19:33N 40°37' E 022°54'0 0.0
2016-Aug-23 18:33N 40°37' E 022°54'0 0.0
2016-Aug-23 17:33N 40°37' E 022°54'0 0.0
2016-Aug-23 16:33N 40°37' E 022°54'0 0.0
2016-Aug-23 15:33N 40°37' E 022°54'0 0.0
2016-Aug-23 14:33N 40°37' E 022°54'0 0.0
2016-Aug-23 13:34N 40°37' E 022°54'0 0.0
2016-Aug-23 12:34N 40°37' E 022°54'0 0.0
2016-Aug-23 11:34N 40°37' E 022°54'0 0.0
2016-Aug-23 10:34N 40°37' E 022°54'1 0.5
2016-Aug-23 09:34N 40°37' E 022°54'0 0.2
2016-Aug-23 08:34N 40°37' E 022°54'0 0.2
2016-Aug-23 07:33N 40°37' E 022°54'2 2.0
2016-Aug-23 06:33N 40°38' E 022°56'0 0.0
2016-Aug-23 05:33N 40°38' E 022°56'1 1.5
2016-Aug-23 04:33N 40°38' E 022°54'1 1.5
2016-Aug-23 03:33N 40°38' E 022°56'0 0.0
2016-Aug-23 02:34N 40°38' E 022°56'0 0.0
2016-Aug-23 01:33N 40°38' E 022°56'0 0.0
2016-Aug-23 00:33N 40°38' E 022°56'0 0.0
2016-Aug-22 23:34N 40°38' E 022°56'0 0.0
2016-Aug-22 22:33N 40°38' E 022°56'0 0.0
2016-Aug-22 21:34N 40°38' E 022°56'0 0.0
2016-Aug-22 20:33N 40°38' E 022°56'0 0.0
2016-Aug-22 19:34N 40°38' E 022°56'0 0.0
2016-Aug-22 18:33N 40°38' E 022°56'0 0.0
2016-Aug-22 15:33N 40°38' E 022°56'0 0.0
2016-Aug-22 14:33N 40°38' E 022°56'1 0.3
2016-Aug-22 10:33N 40°38' E 022°54'0 0.4
2016-Aug-22 09:33N 40°38' E 022°53'0 0.0
2016-Aug-22 08:33N 40°38' E 022°53'0 0.0
2016-Aug-22 07:33N 40°38' E 022°53'0 0.0
2016-Aug-22 06:33N 40°38' E 022°53'0 0.0
2016-Aug-22 05:33N 40°38' E 022°53'0 0.3
2016-Aug-22 04:33N 40°38' E 022°54'0 0.5
2016-Aug-22 03:33N 40°38' E 022°54'1 1.0
2016-Aug-22 02:33N 40°38' E 022°56'0 0.0
2016-Aug-22 01:33N 40°38' E 022°56'0 0.0
2016-Aug-22 00:33N 40°38' E 022°56'0 0.0
2016-Aug-21 23:33N 40°38' E 022°56'0 0.0
2016-Aug-21 22:33N 40°38' E 022°56'0 0.0
2016-Aug-21 21:33N 40°38' E 022°56'0 0.0
2016-Aug-21 20:34N 40°38' E 022°56'0 0.0
2016-Aug-21 19:33N 40°38' E 022°56'0 0.0
2016-Aug-21 18:33N 40°38' E 022°56'1 1.0
2016-Aug-21 17:33N 40°38' E 022°54'0 0.2
2016-Aug-21 16:33N 40°38' E 022°54'1 1.1
2016-Aug-21 15:33N 40°38' E 022°56'1 1.2
2016-Aug-21 14:33N 40°38' E 022°54'1 1.4
2016-Aug-21 13:34N 40°37' E 022°54'0 0.1
2016-Aug-21 12:34N 40°37' E 022°54'0 0.2
2016-Aug-21 11:33N 40°37' E 022°54'0 0.4
2016-Aug-21 10:33N 40°37' E 022°54'0 0.0
2016-Aug-21 09:34N 40°37' E 022°54'0 0.0
2016-Aug-21 08:34N 40°37' E 022°54'0 0.0
2016-Aug-21 07:33N 40°37' E 022°54'0 0.0
2016-Aug-21 06:33N 40°37' E 022°54'0 0.0
2016-Aug-21 05:33N 40°37' E 022°54'0 0.0
2016-Aug-21 04:33N 40°37' E 022°54'0 0.0
2016-Aug-21 03:33N 40°37' E 022°54'0 0.0
2016-Aug-21 02:33N 40°37' E 022°54'0 0.0
2016-Aug-21 01:33N 40°37' E 022°54'0 0.0
2016-Aug-21 00:33N 40°37' E 022°54'0 0.0
2016-Aug-20 23:33N 40°37' E 022°54'0 0.0
2016-Aug-20 22:33N 40°37' E 022°54'0 0.0
2016-Aug-20 21:33N 40°37' E 022°54'0 0.0
2016-Aug-20 20:33N 40°37' E 022°54'0 0.0
2016-Aug-20 19:33N 40°37' E 022°54'0 0.0
2016-Aug-20 18:33N 40°37' E 022°54'0 0.0
2016-Aug-20 17:34N 40°37' E 022°54'0 0.0
2016-Aug-20 16:33N 40°37' E 022°54'0 0.0
2016-Aug-20 15:33N 40°37' E 022°54'0 0.0
2016-Aug-20 14:33N 40°37' E 022°54'0 0.0
2016-Aug-20 13:33N 40°37' E 022°54'0 0.0
2016-Aug-20 12:33N 40°37' E 022°54'0 0.0
2016-Aug-20 11:33N 40°37' E 022°54'0 0.0
2016-Aug-20 10:33N 40°37' E 022°54'0 0.0
2016-Aug-20 09:33N 40°37' E 022°54'0 0.3
2016-Aug-20 08:34N 40°37' E 022°54'0 0.2
2016-Aug-20 07:34N 40°37' E 022°54'2 2.0
2016-Aug-20 06:34N 40°38' E 022°56'1 1.1
2016-Aug-20 05:34N 40°38' E 022°54'1 0.7
2016-Aug-20 04:34N 40°38' E 022°53'2 1.7
2016-Aug-20 03:33N 40°38' E 022°56'0 0.0
2016-Aug-20 02:33N 40°38' E 022°56'0 0.0
2016-Aug-20 01:33N 40°38' E 022°56'0 0.0
2016-Aug-20 00:33N 40°38' E 022°56'0 0.0
2016-Aug-19 23:33N 40°38' E 022°56'0 0.0
2016-Aug-19 22:33N 40°38' E 022°56'0 0.0
2016-Aug-19 21:33N 40°38' E 022°56'0 0.0
2016-Aug-19 20:34N 40°38' E 022°56'0 0.0
2016-Aug-19 19:33N 40°38' E 022°56'0 0.0
2016-Aug-19 18:33N 40°38' E 022°56'0 0.0
2016-Aug-19 17:33N 40°38' E 022°56'0 0.0
2016-Aug-19 16:33N 40°38' E 022°56'0 0.0
2016-Aug-19 15:33N 40°38' E 022°56'0 0.0
2016-Aug-19 11:32N 40°38' E 022°56'0 0.0
2016-Aug-18 17:29N 40°38' E 022°56'0 0.0
2016-Aug-18 16:33N 40°38' E 022°56'0 0.0
2016-Aug-18 15:33N 40°38' E 022°56'0 0.0
2016-Aug-18 14:33N 40°38' E 022°56'0 0.0
2016-Aug-18 13:33N 40°38' E 022°56'0 0.0
2016-Aug-18 12:33N 40°38' E 022°56'1 1.1
2016-Aug-18 11:33N 40°38' E 022°54'0 0.5
2016-Aug-18 10:33N 40°38' E 022°54'1 0.7
2016-Aug-18 09:33N 40°38' E 022°53'0 0.0
2016-Aug-18 08:33N 40°38' E 022°53'2 2.0
2016-Aug-18 07:34N 40°38' E 022°56'2 0.1
2016-Aug-17 09:33N 40°38' E 022°54'0 0.0
2016-Aug-17 08:33N 40°38' E 022°54'0 0.0
2016-Aug-17 07:33N 40°38' E 022°54'0 0.0
2016-Aug-17 06:33N 40°38' E 022°54'0 0.4
2016-Aug-17 05:32N 40°38' E 022°53'1 1.0
2016-Aug-17 04:33N 40°38' E 022°54'0 0.1
2016-Aug-17 03:33N 40°38' E 022°54'1 0.1
2016-Aug-16 08:31N 40°38' E 022°56'0 0.0
2016-Aug-16 07:33N 40°38' E 022°56'2 0.7
2016-Aug-16 04:33N 40°38' E 022°53'0 0.0
2016-Aug-16 03:33N 40°38' E 022°53'0 0.0
2016-Aug-16 02:34N 40°38' E 022°53'0 0.0
2016-Aug-16 01:33N 40°38' E 022°53'0 0.0
2016-Aug-16 00:33N 40°38' E 022°53'0 0.0
2016-Aug-15 23:33N 40°38' E 022°53'0 0.0
2016-Aug-15 22:33N 40°38' E 022°53'0 0.0
2016-Aug-15 21:33N 40°38' E 022°53'0 0.0
2016-Aug-15 20:33N 40°38' E 022°53'0 0.0
2016-Aug-15 19:33N 40°38' E 022°53'0 0.0
2016-Aug-15 18:33N 40°38' E 022°53'0 0.0
2016-Aug-15 17:33N 40°38' E 022°53'0 0.0
2016-Aug-15 16:33N 40°38' E 022°53'0 0.0
2016-Aug-15 15:33N 40°38' E 022°53'0 0.0
2016-Aug-15 14:33N 40°38' E 022°53'0 0.0
2016-Aug-15 13:33N 40°38' E 022°53'0 0.0
2016-Aug-15 12:34N 40°38' E 022°53'0 0.0
2016-Aug-15 11:33N 40°38' E 022°53'  

Dump ship's entire track history